createdAt,value
2019-05-26T00:02:17.525Z,25.10
2019-05-26T00:04:47.877Z,23.85
2019-05-26T00:07:30.187Z,24.65
2019-05-26T00:09:50.293Z,25.20
2019-05-26T00:12:21.858Z,24.02
2019-05-26T00:14:52.244Z,26.02
2019-05-26T00:17:22.679Z,24.87
2019-05-26T00:19:53.057Z,25.02
2019-05-26T00:22:23.411Z,25.10
2019-05-26T00:24:53.848Z,25.72
2019-05-26T00:27:24.203Z,26.52
2019-05-26T00:29:54.638Z,26.42
2019-05-26T00:32:24.992Z,28.07
2019-05-26T00:34:55.524Z,28.77
2019-05-26T00:37:26.392Z,29.07
2019-05-26T00:39:56.805Z,29.85
2019-05-26T00:42:27.186Z,28.47
2019-05-26T00:44:57.614Z,28.00
2019-05-26T00:47:28.091Z,28.90
2019-05-26T00:49:58.517Z,28.83
2019-05-26T00:52:28.912Z,30.20
2019-05-26T00:54:59.443Z,29.25
2019-05-26T00:57:30.221Z,30.97
2019-05-26T01:00:00.640Z,32.90
2019-05-26T01:02:31.165Z,33.33
2019-05-26T01:05:01.637Z,35.05
2019-05-26T01:07:32.075Z,37.13
2019-05-26T01:10:02.530Z,40.03
2019-05-26T01:12:32.972Z,40.17
2019-05-26T01:15:03.997Z,38.33
2019-05-26T01:17:34.399Z,38.90
2019-05-26T01:20:06.548Z,38.30
2019-05-26T01:22:36.999Z,40.55
2019-05-26T01:25:08.840Z,40.92
2019-05-26T01:27:39.202Z,44.33
2019-05-26T01:30:09.718Z,43.80
2019-05-26T01:32:40.330Z,46.37
2019-05-26T01:35:10.876Z,44.42
2019-05-26T01:37:42.709Z,44.95
2019-05-26T01:40:13.337Z,44.13
2019-05-26T01:42:44.715Z,43.63
2019-05-26T01:45:15.248Z,38.53
2019-05-26T01:47:45.620Z,40.10
2019-05-26T01:50:16.030Z,39.95
2019-05-26T01:52:46.384Z,38.90
2019-05-26T01:55:16.815Z,35.52
2019-05-26T01:57:47.253Z,35.05
2019-05-26T02:00:18.419Z,26.87
2019-05-26T02:02:48.836Z,23.92
2019-05-26T02:05:20.450Z,22.50
2019-05-26T02:07:50.879Z,21.80
2019-05-26T02:10:21.617Z,20.52
2019-05-26T02:12:52.038Z,22.00
2019-05-26T02:15:23.482Z,21.23
2019-05-26T02:17:53.932Z,22.37
2019-05-26T02:20:24.578Z,21.57
2019-05-26T02:22:55.060Z,22.10
2019-05-26T02:25:26.016Z,20.50
2019-05-26T02:27:56.384Z,20.45
2019-05-26T02:30:26.906Z,20.43
2019-05-26T02:32:57.266Z,19.50
2019-05-26T02:35:27.696Z,18.42
2019-05-26T02:37:58.047Z,17.95
2019-05-26T02:40:28.527Z,16.85
2019-05-26T02:42:58.904Z,18.67
2019-05-26T02:45:30.246Z,17.77
2019-05-26T02:48:00.819Z,14.90
2019-05-26T02:50:31.247Z,13.35
2019-05-26T02:53:01.624Z,15.38
2019-05-26T02:55:32.062Z,13.95
2019-05-26T02:58:02.432Z,13.95
2019-05-26T03:00:44.686Z,13.55
2019-05-26T03:03:16.953Z,12.43
2019-05-26T03:08:17.627Z,11.43
2019-05-26T03:10:50.831Z,11.12
2019-05-26T03:13:21.290Z,11.50
2019-05-26T03:15:54.281Z,10.38
2019-05-26T03:18:24.695Z,10.05
2019-05-26T03:20:57.196Z,11.40
2019-05-26T03:23:30.502Z,10.43
2019-05-26T03:26:01.844Z,9.55
2019-05-26T03:28:33.406Z,10.88
2019-05-26T03:31:03.809Z,10.63
2019-05-26T03:33:34.318Z,10.88
2019-05-26T03:36:04.686Z,10.40
2019-05-26T03:38:35.117Z,10.32
2019-05-26T03:41:06.134Z,9.40
2019-05-26T03:43:36.756Z,8.78
2019-05-26T03:46:18.099Z,8.80
2019-05-26T03:51:20.441Z,8.88
2019-05-26T03:53:50.783Z,9.35
2019-05-26T03:56:22.421Z,9.70
2019-05-26T03:58:52.778Z,9.48
2019-05-26T04:01:23.207Z,10.50
2019-05-26T04:03:53.618Z,9.90
2019-05-26T04:06:24.051Z,9.95
2019-05-26T04:08:54.494Z,9.23
2019-05-26T04:11:24.933Z,9.45
2019-05-26T04:13:55.297Z,9.68
2019-05-26T04:16:25.718Z,10.03
2019-05-26T04:18:56.091Z,9.90
2019-05-26T04:21:26.537Z,10.13
2019-05-26T04:23:56.902Z,9.55
2019-05-26T04:26:27.337Z,10.38
2019-05-26T04:28:57.684Z,9.93
2019-05-26T04:31:28.237Z,9.98
2019-05-26T04:33:58.604Z,10.10
2019-05-26T04:36:29.066Z,10.82
2019-05-26T04:38:59.500Z,12.63
2019-05-26T04:41:29.928Z,12.45
2019-05-26T04:44:00.319Z,11.97
2019-05-26T04:46:30.741Z,11.40
2019-05-26T04:49:01.172Z,12.30
2019-05-26T04:51:31.556Z,12.68
2019-05-26T04:54:01.973Z,13.25
2019-05-26T04:56:32.428Z,13.38
2019-05-26T04:59:02.775Z,13.38
2019-05-26T05:01:33.202Z,15.23
2019-05-26T05:04:03.609Z,13.75
2019-05-26T05:06:33.974Z,14.93
2019-05-26T05:09:06.784Z,15.43
2019-05-26T05:11:37.203Z,14.83
2019-05-26T05:14:07.622Z,14.10
2019-05-26T05:16:38.059Z,13.72
2019-05-26T05:19:08.469Z,14.55
2019-05-26T05:21:38.912Z,14.80
2019-05-26T05:24:09.261Z,13.60
2019-05-26T05:26:39.697Z,13.18
2019-05-26T05:29:10.079Z,12.88
2019-05-26T05:31:40.507Z,13.35
2019-05-26T05:34:10.862Z,12.28
2019-05-26T05:36:41.309Z,12.53
2019-05-26T05:39:11.657Z,12.88
2019-05-26T05:41:42.111Z,11.93
2019-05-26T05:44:12.477Z,13.60
2019-05-26T05:46:42.883Z,13.03
2019-05-26T05:49:13.308Z,13.00
2019-05-26T05:51:43.739Z,13.40
2019-05-26T05:54:14.150Z,11.50
2019-05-26T05:56:44.510Z,12.75
2019-05-26T05:59:14.929Z,14.98
2019-05-26T06:01:45.297Z,17.55
2019-05-26T06:04:15.721Z,17.05
2019-05-26T06:06:46.181Z,15.88
2019-05-26T06:09:16.707Z,17.30
2019-05-26T06:11:47.074Z,16.23
2019-05-26T06:14:17.504Z,17.50
2019-05-26T06:16:47.866Z,17.67
2019-05-26T06:19:18.507Z,17.85
2019-05-26T06:21:48.889Z,17.80
2019-05-26T06:24:19.315Z,18.40
2019-05-26T06:26:49.702Z,18.92
2019-05-26T06:29:20.108Z,18.05
2019-05-26T06:31:50.523Z,16.97
2019-05-26T06:34:21.209Z,18.00
2019-05-26T06:36:51.573Z,18.35
2019-05-26T06:39:22.019Z,18.23
2019-05-26T06:41:52.669Z,18.48
2019-05-26T06:44:24.293Z,17.70
2019-05-26T06:46:54.696Z,16.60
2019-05-26T06:49:25.110Z,17.70
2019-05-26T06:51:55.523Z,17.40
2019-05-26T06:54:25.933Z,16.32
2019-05-26T06:56:56.351Z,16.60
2019-05-26T06:59:26.778Z,17.05
2019-05-26T07:01:57.136Z,15.88
2019-05-26T07:04:27.575Z,15.63
2019-05-26T07:06:57.948Z,15.40
2019-05-26T07:09:28.380Z,14.75
2019-05-26T07:12:00.406Z,14.98
2019-05-26T07:14:31.829Z,15.45
2019-05-26T07:17:02.195Z,13.43
2019-05-26T07:19:32.645Z,14.60
2019-05-26T07:22:03.035Z,11.95
2019-05-26T07:24:33.471Z,11.05
2019-05-26T07:27:03.851Z,10.35
2019-05-26T07:29:35.372Z,11.07
2019-05-26T07:32:06.130Z,10.30
2019-05-26T07:34:36.568Z,10.10
2019-05-26T07:37:06.922Z,9.58
2019-05-26T07:39:37.337Z,10.15
2019-05-26T07:42:10.523Z,9.20
2019-05-26T07:44:39.781Z,9.18
2019-05-26T07:47:10.130Z,8.05
2019-05-26T07:49:40.530Z,8.00
2019-05-26T07:52:11.158Z,8.08
2019-05-26T07:54:41.539Z,9.30
2019-05-26T07:57:11.941Z,8.08
2019-05-26T07:59:42.309Z,8.18
2019-05-26T08:02:12.748Z,7.53
2019-05-26T08:04:43.181Z,7.67
2019-05-26T08:07:13.596Z,7.47
2019-05-26T08:09:44.008Z,7.70
2019-05-26T08:12:25.841Z,8.45
2019-05-26T08:14:46.501Z,9.00
2019-05-26T08:17:16.956Z,10.08
2019-05-26T08:19:47.393Z,9.60
2019-05-26T08:22:17.784Z,8.40
2019-05-26T08:24:48.196Z,8.70
2019-05-26T08:27:18.625Z,8.65
2019-05-26T08:29:49.036Z,11.33
2019-05-26T08:32:19.446Z,9.28
2019-05-26T08:34:49.869Z,6.95
2019-05-26T08:37:21.424Z,6.75
2019-05-26T08:39:51.939Z,6.65
2019-05-26T08:42:27.246Z,5.70
2019-05-26T08:44:54.321Z,5.85
2019-05-26T08:47:24.685Z,6.17
2019-05-26T08:49:55.086Z,5.47
2019-05-26T08:52:25.650Z,4.35
2019-05-26T08:54:56.076Z,4.97
2019-05-26T08:57:26.435Z,4.58
2019-05-26T08:59:56.886Z,4.22
2019-05-26T09:02:27.453Z,4.20
2019-05-26T09:04:57.922Z,4.60
2019-05-26T09:07:28.296Z,4.87
2019-05-26T09:09:58.729Z,3.75
2019-05-26T09:12:29.091Z,3.00
2019-05-26T09:14:59.524Z,5.12
2019-05-26T09:17:29.900Z,2.35
2019-05-26T09:20:00.305Z,3.00
2019-05-26T09:22:31.868Z,3.27
2019-05-26T09:25:02.324Z,7.80
2019-05-26T09:27:32.819Z,3.40
2019-05-26T09:30:06.430Z,7.50
2019-05-26T09:32:36.960Z,3.77
2019-05-26T09:35:08.121Z,4.03
2019-05-26T09:37:38.582Z,3.50
2019-05-26T09:40:10.631Z,4.10
2019-05-26T09:42:41.141Z,4.20
2019-05-26T09:45:11.705Z,3.90
2019-05-26T09:47:42.134Z,4.35
2019-05-26T09:50:14.293Z,5.17
2019-05-26T09:52:45.715Z,4.12
2019-05-26T09:55:17.912Z,4.92
2019-05-26T09:57:48.333Z,4.30
2019-05-26T10:00:19.550Z,5.30
2019-05-26T10:02:49.963Z,5.25
2019-05-26T10:05:20.369Z,5.25
2019-05-26T10:07:50.778Z,5.03
2019-05-26T10:10:21.793Z,5.92
2019-05-26T10:12:52.189Z,7.22
2019-05-26T10:15:25.541Z,5.03
2019-05-26T10:17:56.000Z,4.28
2019-05-26T10:20:26.604Z,4.90
2019-05-26T10:22:56.953Z,5.37
2019-05-26T10:25:27.379Z,4.37
2019-05-26T10:27:57.744Z,5.45
2019-05-26T10:30:28.171Z,5.20
2019-05-26T10:32:59.046Z,4.20
2019-05-26T10:35:29.470Z,4.05
2019-05-26T10:37:59.819Z,4.30
2019-05-26T10:40:30.241Z,4.17
2019-05-26T10:43:01.989Z,4.67
2019-05-26T10:45:34.419Z,4.70
2019-05-26T10:48:04.497Z,4.97
2019-05-26T10:50:36.069Z,5.62
2019-05-26T10:53:06.492Z,4.47
2019-05-26T10:55:36.861Z,4.20
2019-05-26T10:58:07.221Z,5.08
2019-05-26T11:00:37.664Z,4.28
2019-05-26T11:03:08.021Z,4.12
2019-05-26T11:05:38.456Z,5.65
2019-05-26T11:08:08.813Z,4.60
2019-05-26T11:10:39.251Z,4.83
2019-05-26T11:13:09.729Z,4.53
2019-05-26T11:15:40.170Z,4.83
2019-05-26T11:18:10.516Z,4.42
2019-05-26T11:20:41.734Z,4.50
2019-05-26T11:23:12.085Z,3.90
2019-05-26T11:25:43.628Z,4.10
2019-05-26T11:28:13.990Z,4.55
2019-05-26T11:30:44.390Z,4.05
2019-05-26T11:33:14.747Z,4.65
2019-05-26T11:35:45.172Z,4.50
2019-05-26T11:38:15.536Z,4.20
2019-05-26T11:40:45.964Z,4.60
2019-05-26T11:43:17.516Z,4.60
2019-05-26T11:45:48.256Z,4.80
2019-05-26T11:48:18.687Z,4.12
2019-05-26T11:50:49.030Z,4.60
2019-05-26T11:53:19.441Z,5.50
2019-05-26T11:55:51.001Z,7.35
2019-05-26T11:58:22.556Z,7.12
2019-05-26T12:00:53.025Z,6.20
2019-05-26T12:03:23.452Z,6.85
2019-05-26T12:05:53.802Z,6.75
2019-05-26T12:08:24.220Z,6.53
2019-05-26T12:10:58.311Z,7.12
2019-05-26T12:13:27.418Z,7.00
2019-05-26T12:15:59.486Z,7.50
2019-05-26T12:18:29.917Z,7.60
2019-05-26T12:21:00.313Z,5.85
2019-05-26T12:23:30.796Z,7.10
2019-05-26T12:26:01.268Z,6.60
2019-05-26T12:28:31.671Z,6.25
2019-05-26T12:31:02.120Z,5.85
2019-05-26T12:33:32.525Z,5.85
2019-05-26T12:36:02.887Z,5.62
2019-05-26T12:38:34.866Z,5.60
2019-05-26T12:41:05.401Z,5.33
2019-05-26T12:43:35.773Z,5.10
2019-05-26T12:46:06.172Z,5.30
2019-05-26T12:48:36.527Z,4.90
2019-05-26T12:51:06.939Z,4.50
2019-05-26T12:53:40.224Z,5.10
2019-05-26T12:56:10.429Z,5.35
2019-05-26T12:58:42.093Z,5.30
2019-05-26T13:01:12.460Z,4.70
2019-05-26T13:03:42.856Z,4.60
2019-05-26T13:06:13.206Z,4.75
2019-05-26T13:08:43.598Z,5.08
2019-05-26T13:11:14.023Z,5.05
2019-05-26T13:13:44.514Z,4.75
2019-05-26T13:16:14.882Z,5.00
2019-05-26T13:18:45.304Z,5.35
2019-05-26T13:21:15.653Z,5.20
2019-05-26T13:23:46.070Z,4.75
2019-05-26T13:26:16.414Z,4.78
2019-05-26T13:28:46.829Z,5.37
2019-05-26T13:31:18.182Z,5.80
2019-05-26T13:33:48.623Z,4.87
2019-05-26T13:36:19.137Z,5.58
2019-05-26T13:38:49.513Z,6.60
2019-05-26T13:41:19.888Z,7.30
2019-05-26T13:43:50.303Z,5.90
2019-05-26T13:46:20.736Z,6.05
2019-05-26T13:48:51.118Z,6.03
2019-05-26T13:51:21.945Z,6.05
2019-05-26T13:53:52.345Z,6.25
2019-05-26T13:56:23.452Z,5.83
2019-05-26T13:58:53.857Z,7.55
2019-05-26T14:01:24.265Z,4.90
2019-05-26T14:03:54.692Z,6.25
2019-05-26T14:06:25.057Z,5.22
2019-05-26T14:08:55.463Z,5.12
2019-05-26T14:11:29.561Z,5.75
2019-05-26T14:14:00.469Z,4.47
2019-05-26T14:16:31.648Z,5.40
2019-05-26T14:19:04.968Z,4.80
2019-05-26T14:21:35.336Z,4.45
2019-05-26T14:24:06.159Z,5.37
2019-05-26T14:26:36.534Z,6.12
2019-05-26T14:29:06.966Z,4.15
2019-05-26T14:31:37.353Z,3.35
2019-05-26T14:34:07.781Z,3.25
2019-05-26T14:36:38.155Z,3.00
2019-05-26T14:39:10.085Z,3.47
2019-05-26T14:41:40.537Z,4.22
2019-05-26T14:44:10.961Z,2.90
2019-05-26T14:46:41.314Z,3.20
2019-05-26T14:49:12.923Z,2.65
2019-05-26T14:51:43.350Z,2.65
2019-05-26T14:54:13.710Z,3.02
2019-05-26T14:56:44.117Z,2.95
2019-05-26T14:59:14.488Z,3.20
2019-05-26T15:01:44.919Z,2.90
2019-05-26T15:04:16.268Z,4.00
2019-05-26T15:06:46.848Z,4.08
2019-05-26T15:09:25.108Z,2.87
2019-05-26T15:11:51.687Z,3.37
2019-05-26T15:14:22.037Z,5.83
2019-05-26T15:16:53.763Z,3.95
2019-05-26T15:19:24.239Z,3.17
2019-05-26T15:21:54.660Z,3.65
2019-05-26T15:24:25.035Z,3.45
2019-05-26T15:26:55.463Z,3.30
2019-05-26T15:29:25.824Z,3.50
2019-05-26T15:31:57.489Z,3.30
2019-05-26T15:34:28.005Z,3.98
2019-05-26T15:36:58.436Z,4.97
2019-05-26T15:39:28.800Z,4.92
2019-05-26T15:41:59.161Z,3.98
2019-05-26T15:44:29.554Z,3.33
2019-05-26T15:47:00.990Z,4.20
2019-05-26T15:49:31.395Z,5.05
2019-05-26T15:52:01.840Z,3.98
2019-05-26T15:54:32.241Z,4.17
2019-05-26T15:57:02.666Z,4.42
2019-05-26T15:59:33.089Z,4.97
2019-05-26T16:02:03.493Z,5.05
2019-05-26T16:04:34.007Z,4.70
2019-05-26T16:07:05.118Z,5.37
2019-05-26T16:09:35.535Z,5.67
2019-05-26T16:12:06.462Z,6.08
2019-05-26T16:14:36.865Z,6.95
2019-05-26T16:17:07.273Z,5.72
2019-05-26T16:19:37.672Z,5.80
2019-05-26T16:22:08.188Z,6.55
2019-05-26T16:24:38.586Z,5.78
2019-05-26T16:27:18.603Z,6.58
2019-05-26T16:29:41.211Z,9.13
2019-05-26T16:32:11.621Z,6.47
2019-05-26T16:34:42.033Z,6.12
2019-05-26T16:37:12.452Z,7.10
2019-05-26T16:39:42.888Z,5.50
2019-05-26T16:42:13.306Z,5.62
2019-05-26T16:44:43.736Z,4.97
2019-05-26T16:47:14.145Z,6.22
2019-05-26T16:49:44.545Z,5.60
2019-05-26T16:52:14.978Z,4.70
2019-05-26T16:54:45.531Z,4.47
2019-05-26T16:57:15.943Z,4.28
2019-05-26T16:59:46.380Z,4.35
2019-05-26T17:02:16.811Z,4.08
2019-05-26T17:04:47.287Z,3.90
2019-05-26T17:07:17.705Z,5.25
2019-05-26T17:09:48.148Z,5.60
2019-05-26T17:12:18.584Z,4.92
2019-05-26T17:14:49.010Z,4.50
2019-05-26T17:17:19.409Z,6.22
2019-05-26T17:19:52.605Z,6.28
2019-05-26T17:22:21.844Z,7.45
2019-05-26T17:24:52.247Z,8.28
2019-05-26T17:27:22.628Z,9.00
2019-05-26T17:29:53.046Z,8.85
2019-05-26T17:32:23.469Z,8.48
2019-05-26T17:34:53.905Z,7.35
2019-05-26T17:37:24.500Z,8.70
2019-05-26T17:39:55.013Z,7.47
2019-05-26T17:42:25.452Z,6.70
2019-05-26T17:44:55.864Z,5.70
2019-05-26T17:47:30.327Z,5.85
2019-05-26T17:49:58.328Z,5.90
2019-05-26T17:52:28.746Z,5.67
2019-05-26T17:54:59.164Z,5.35
2019-05-26T17:57:29.606Z,4.85
2019-05-26T17:59:59.987Z,4.58
2019-05-26T18:02:30.407Z,5.00
2019-05-26T18:05:00.774Z,5.47
2019-05-26T18:07:31.221Z,6.08
2019-05-26T18:10:01.578Z,5.90
2019-05-26T18:12:32.009Z,7.28
2019-05-26T18:15:02.375Z,4.50
2019-05-26T18:17:46.303Z,5.20
2019-05-26T18:20:06.965Z,5.05
2019-05-26T18:22:38.678Z,4.42
2019-05-26T18:25:09.247Z,5.03
2019-05-26T18:27:39.829Z,5.08
2019-05-26T18:30:11.901Z,4.60
2019-05-26T18:32:42.322Z,4.72
2019-05-26T18:35:12.688Z,5.28
2019-05-26T18:37:43.072Z,5.42
2019-05-26T18:40:14.801Z,5.20
2019-05-26T18:42:45.225Z,5.42
2019-05-26T18:45:15.653Z,5.37
2019-05-26T18:48:01.426Z,7.45
2019-05-26T18:50:18.105Z,5.35
2019-05-26T18:52:48.515Z,6.30
2019-05-26T18:55:18.921Z,6.25
2019-05-26T18:57:49.281Z,5.85
2019-05-26T19:00:19.898Z,6.40
2019-05-26T19:02:51.503Z,6.08
2019-05-26T19:05:33.127Z,6.30
2019-05-26T19:07:53.951Z,7.42
2019-05-26T19:10:24.639Z,6.37
2019-05-26T19:12:54.984Z,7.22
2019-05-26T19:15:25.499Z,6.97
2019-05-26T19:17:55.849Z,7.10
2019-05-26T19:20:26.661Z,7.65
2019-05-26T19:22:57.021Z,6.97
2019-05-26T19:25:27.523Z,7.33
2019-05-26T19:27:57.874Z,7.12
2019-05-26T19:30:28.288Z,7.67
2019-05-26T19:32:58.648Z,7.28
2019-05-26T19:35:29.069Z,7.80
2019-05-26T19:37:59.427Z,7.33
2019-05-26T19:40:29.866Z,6.92
2019-05-26T19:43:00.336Z,8.18
2019-05-26T19:45:30.757Z,8.18
2019-05-26T19:48:01.188Z,8.50
2019-05-26T19:50:31.841Z,8.10
2019-05-26T19:53:02.347Z,8.25
2019-05-26T19:55:32.760Z,6.95
2019-05-26T19:58:03.189Z,7.85
2019-05-26T20:00:33.699Z,7.28
2019-05-26T20:03:04.730Z,7.00
2019-05-26T20:05:35.227Z,6.72
2019-05-26T20:08:05.853Z,6.95
2019-05-26T20:10:36.317Z,7.45
2019-05-26T20:13:06.832Z,7.95
2019-05-26T20:15:37.608Z,7.53
2019-05-26T20:18:08.127Z,7.37
2019-05-26T20:20:38.476Z,7.83
2019-05-26T20:23:08.912Z,8.00
2019-05-26T20:25:39.266Z,8.08
2019-05-26T20:28:09.686Z,7.95
2019-05-26T20:30:40.092Z,6.78
2019-05-26T20:33:11.895Z,7.42
2019-05-26T20:35:43.524Z,7.47
2019-05-26T20:38:14.057Z,7.12
2019-05-26T20:40:45.298Z,7.10
2019-05-26T20:43:15.737Z,6.83
2019-05-26T20:45:46.115Z,6.65
2019-05-26T20:48:16.517Z,6.80
2019-05-26T20:50:46.917Z,6.35
2019-05-26T20:53:17.284Z,6.33
2019-05-26T20:55:47.677Z,5.65
2019-05-26T20:58:18.041Z,5.50
2019-05-26T21:00:48.575Z,5.97
2019-05-26T21:03:18.928Z,5.67
2019-05-26T21:05:49.341Z,6.45
2019-05-26T21:08:19.704Z,5.45
2019-05-26T21:10:50.154Z,5.60
2019-05-26T21:13:20.542Z,4.97
2019-05-26T21:15:51.018Z,5.42
2019-05-26T21:18:21.368Z,5.65
2019-05-26T21:20:51.794Z,5.30
2019-05-26T21:23:22.888Z,5.50
2019-05-26T21:25:53.388Z,6.75
2019-05-26T21:28:23.802Z,5.72
2019-05-26T21:30:54.165Z,5.87
2019-05-26T21:33:24.586Z,6.25
2019-05-26T21:35:54.957Z,5.80
2019-05-26T21:38:25.368Z,5.80
2019-05-26T21:40:55.731Z,5.40
2019-05-26T21:43:26.159Z,6.00
2019-05-26T21:45:56.530Z,6.12
2019-05-26T21:48:26.949Z,6.85
2019-05-26T21:50:57.370Z,5.83
2019-05-26T21:53:27.829Z,5.85
2019-05-26T21:55:59.697Z,5.80
2019-05-26T21:58:31.607Z,5.70
2019-05-26T22:01:02.050Z,6.28
2019-05-26T22:03:32.473Z,6.42
2019-05-26T22:06:02.843Z,6.75
2019-05-26T22:08:33.268Z,7.30
2019-05-26T22:11:03.619Z,7.15
2019-05-26T22:13:33.992Z,6.80
2019-05-26T22:16:04.905Z,7.72
2019-05-26T22:18:35.264Z,6.95
2019-05-26T22:21:05.789Z,6.50
2019-05-26T22:23:36.157Z,6.42
2019-05-26T22:26:06.564Z,6.87
2019-05-26T22:28:36.964Z,7.03
2019-05-26T22:31:07.367Z,7.50
2019-05-26T22:33:39.213Z,8.03
2019-05-26T22:36:09.597Z,7.95
2019-05-26T22:38:40.061Z,7.67
2019-05-26T22:41:10.416Z,7.17
2019-05-26T22:43:42.071Z,7.58
2019-05-26T22:46:12.488Z,7.90
2019-05-26T22:48:42.840Z,8.00
2019-05-26T22:51:14.385Z,8.38
2019-05-26T22:53:44.758Z,8.43
2019-05-26T22:56:15.195Z,8.13
2019-05-26T22:58:45.570Z,7.92
2019-05-26T23:01:16.059Z,8.58
2019-05-26T23:03:46.441Z,7.95
2019-05-26T23:06:16.961Z,8.70
2019-05-26T23:08:47.317Z,7.97
2019-05-26T23:11:17.752Z,8.03
2019-05-26T23:13:48.116Z,8.35
2019-05-26T23:16:18.563Z,7.55
2019-05-26T23:18:49.065Z,8.30
2019-05-26T23:21:19.501Z,8.20
2019-05-26T23:23:50.482Z,8.15
2019-05-26T23:26:21.831Z,8.83
2019-05-26T23:28:52.601Z,8.98
2019-05-26T23:31:23.862Z,9.08
2019-05-26T23:33:57.150Z,9.30
2019-05-26T23:36:28.808Z,9.70
2019-05-26T23:38:59.233Z,8.98
2019-05-26T23:41:29.676Z,10.25
2019-05-26T23:44:00.100Z,10.32
2019-05-26T23:46:30.528Z,11.40
2019-05-26T23:49:00.966Z,10.28
2019-05-26T23:51:31.348Z,11.75
2019-05-26T23:54:01.774Z,11.60
2019-05-26T23:56:32.147Z,10.20
2019-05-26T23:59:02.579Z,10.35
